PAL432 RPLL-RJAA
Flight info
| Callsign | PAL432 |
|---|---|
| Flight time | 3h 31m |
| Altitude | 37000 |
| Route | CAB2R CAB R597 VIGOR A590 BUBDO Y83 MOE Y81 RUTAS |
| Aircraft | A35K/H-SDE2E3GHIJ3J4J5LM1ORWXY/LB1D1 |
Departure
| Time | 2026-05-04 07:18 |
|---|---|
| Airport | Ninoy Aquino International Airport (RPLL) |
Arrival
| Time | 2026-05-04 10:49 |
|---|---|
| Airport | Narita International Airport (RJAA) |
| Time | Latitude | Longitude | Altitude | Speed | Heading |
|---|---|---|---|---|---|
| 2026-05-04 06:46 | 14.50432 | 121.00510 | 64 ft | 0 kts | 306° |
| 2026-05-04 07:08 | 14.50368 | 121.00605 | 63 ft | 3 kts | 278° |
| 2026-05-04 07:09 | 14.50367 | 121.00622 | 64 ft | 3 kts | 255° |
| 2026-05-04 07:09 | 14.50372 | 121.00638 | 64 ft | 2 kts | 240° |
| 2026-05-04 07:09 | 14.50371 | 121.00636 | 64 ft | 2 kts | 242° |
| 2026-05-04 07:09 | 14.50369 | 121.00632 | 64 ft | 0 kts | 240° |
| 2026-05-04 07:13 | 14.50368 | 121.00630 | 64 ft | 1 kts | 240° |
| 2026-05-04 07:13 | 14.50362 | 121.00619 | 64 ft | 3 kts | 240° |
| 2026-05-04 07:14 | 14.50252 | 121.00419 | 65 ft | 12 kts | 240° |
| 2026-05-04 07:14 | 14.50203 | 121.00348 | 70 ft | 12 kts | 213° |
| 2026-05-04 07:15 | 14.50128 | 121.00326 | 65 ft | 12 kts | 211° |
| 2026-05-04 07:15 | 14.50078 | 121.00258 | 64 ft | 13 kts | 241° |
| 2026-05-04 07:15 | 14.50032 | 121.00175 | 64 ft | 14 kts | 240° |
| 2026-05-04 07:15 | 14.49982 | 121.00085 | 67 ft | 15 kts | 240° |
| 2026-05-04 07:16 | 14.49927 | 120.99992 | 66 ft | 16 kts | 230° |
| 2026-05-04 07:16 | 14.49835 | 120.99989 | 69 ft | 14 kts | 152° |
| 2026-05-04 07:16 | 14.49815 | 121.00066 | 70 ft | 12 kts | 77° |
| 2026-05-04 07:16 | 14.49857 | 121.00141 | 64 ft | 14 kts | 59° |
| 2026-05-04 07:17 | 14.49944 | 121.00294 | 65 ft | 41 kts | 60° |
| 2026-05-04 07:17 | 14.50188 | 121.00739 | 69 ft | 102 kts | 61° |
| 2026-05-04 07:17 | 14.50634 | 121.01534 | 64 ft | 153 kts | 60° |
| 2026-05-04 07:17 | 14.51215 | 121.02530 | 640 ft | 154 kts | 60° |
| 2026-05-04 07:18 | 14.51789 | 121.03454 | 1353 ft | 159 kts | 61° |
| 2026-05-04 07:18 | 14.52367 | 121.04518 | 1688 ft | 180 kts | 64° |
| 2026-05-04 07:18 | 14.52995 | 121.05718 | 1951 ft | 200 kts | 62° |
| 2026-05-04 07:18 | 14.53696 | 121.07016 | 2280 ft | 216 kts | 62° |
| 2026-05-04 07:19 | 14.54460 | 121.08412 | 2667 ft | 231 kts | 61° |
| 2026-05-04 07:19 | 14.55288 | 121.09909 | 3045 ft | 247 kts | 61° |
| 2026-05-04 07:19 | 14.56172 | 121.11469 | 3646 ft | 255 kts | 58° |
| 2026-05-04 07:19 | 14.57391 | 121.12812 | 4323 ft | 260 kts | 35° |
| 2026-05-04 07:20 | 14.59090 | 121.13457 | 4977 ft | 266 kts | 8° |
| 2026-05-04 07:20 | 14.60958 | 121.13524 | 5609 ft | 272 kts | 2° |
| 2026-05-04 07:20 | 14.62864 | 121.13504 | 6328 ft | 275 kts | 2° |
| 2026-05-04 07:20 | 14.64776 | 121.13495 | 7025 ft | 276 kts | 2° |
| 2026-05-04 07:22 | 14.78711 | 121.10438 | 10887 ft | 338 kts | 343° |
| 2026-05-04 07:22 | 14.80955 | 121.09631 | 11149 ft | 353 kts | 343° |
| 2026-05-04 07:23 | 14.83314 | 121.08780 | 11438 ft | 366 kts | 343° |
| 2026-05-04 07:23 | 14.85747 | 121.07903 | 11787 ft | 373 kts | 343° |
| 2026-05-04 07:23 | 14.88212 | 121.07021 | 11907 ft | 375 kts | 344° |
| 2026-05-04 07:23 | 14.90749 | 121.06429 | 11938 ft | 373 kts | 356° |
| 2026-05-04 07:24 | 14.93339 | 121.06213 | 12240 ft | 375 kts | 359° |
| 2026-05-04 07:24 | 14.95958 | 121.06044 | 12818 ft | 377 kts | 359° |
| 2026-05-04 07:24 | 14.98589 | 121.05870 | 13347 ft | 381 kts | 359° |
| 2026-05-04 07:24 | 15.01250 | 121.05691 | 13845 ft | 384 kts | 358° |
| 2026-05-04 07:25 | 15.03936 | 121.05507 | 14287 ft | 388 kts | 358° |
| 2026-05-04 07:26 | 15.20986 | 121.11022 | 17389 ft | 402 kts | 54° |
| 2026-05-04 07:27 | 15.22587 | 121.13414 | 17814 ft | 406 kts | 56° |
| 2026-05-04 07:27 | 15.24141 | 121.15871 | 18236 ft | 409 kts | 57° |
| 2026-05-04 07:27 | 15.25695 | 121.18348 | 18606 ft | 412 kts | 57° |
| 2026-05-04 07:27 | 15.27276 | 121.20836 | 18978 ft | 415 kts | 56° |
| 2026-05-04 07:28 | 15.28887 | 121.23323 | 19360 ft | 417 kts | 56° |
| 2026-05-04 07:28 | 15.30527 | 121.25818 | 19752 ft | 420 kts | 56° |
| 2026-05-04 07:28 | 15.32189 | 121.28324 | 20134 ft | 422 kts | 55° |
| 2026-05-04 07:28 | 15.33861 | 121.30834 | 20498 ft | 425 kts | 55° |
| 2026-05-04 07:29 | 15.35550 | 121.33366 | 20881 ft | 428 kts | 55° |
| 2026-05-04 07:29 | 15.37247 | 121.35912 | 21271 ft | 430 kts | 55° |
| 2026-05-04 07:29 | 15.38952 | 121.38472 | 21672 ft | 433 kts | 56° |
| 2026-05-04 07:29 | 15.40666 | 121.41049 | 22046 ft | 436 kts | 56° |
| 2026-05-04 07:30 | 15.42391 | 121.43645 | 22435 ft | 439 kts | 56° |
| 2026-05-04 07:30 | 15.44125 | 121.46257 | 22811 ft | 442 kts | 56° |
| 2026-05-04 07:30 | 15.45874 | 121.48891 | 23174 ft | 445 kts | 56° |
| 2026-05-04 07:30 | 15.47636 | 121.51546 | 23531 ft | 448 kts | 56° |
| 2026-05-04 07:31 | 15.49404 | 121.54211 | 23831 ft | 451 kts | 56° |
| 2026-05-04 07:31 | 15.51187 | 121.56900 | 24116 ft | 454 kts | 56° |
| 2026-05-04 07:33 | 15.63947 | 121.76173 | 26578 ft | 473 kts | 55° |
| 2026-05-04 07:33 | 15.65814 | 121.78996 | 26960 ft | 476 kts | 55° |
| 2026-05-04 07:33 | 15.67055 | 121.80874 | 27218 ft | 478 kts | 55° |
| 2026-05-04 07:33 | 15.68939 | 121.83725 | 27618 ft | 480 kts | 55° |
| 2026-05-04 07:34 | 15.70833 | 121.86592 | 27991 ft | 484 kts | 55° |
| 2026-05-04 07:34 | 15.72742 | 121.89482 | 28360 ft | 487 kts | 55° |
| 2026-05-04 07:34 | 15.74661 | 121.92390 | 28705 ft | 490 kts | 55° |
| 2026-05-04 07:34 | 15.76595 | 121.95322 | 29079 ft | 493 kts | 55° |
| 2026-05-04 07:35 | 15.78540 | 121.98270 | 29437 ft | 496 kts | 55° |
| 2026-05-04 07:35 | 15.80495 | 122.01237 | 29764 ft | 499 kts | 55° |
| 2026-05-04 07:35 | 15.82459 | 122.04216 | 30099 ft | 502 kts | 55° |
| 2026-05-04 07:35 | 15.84436 | 122.07218 | 30372 ft | 505 kts | 55° |
| 2026-05-04 07:36 | 15.86426 | 122.10241 | 30646 ft | 508 kts | 55° |
| 2026-05-04 07:36 | 15.88425 | 122.13278 | 30921 ft | 510 kts | 55° |
| 2026-05-04 07:38 | 16.02607 | 122.34862 | 33027 ft | 518 kts | 54° |
| 2026-05-04 07:38 | 16.04639 | 122.37961 | 33367 ft | 518 kts | 54° |
| 2026-05-04 07:38 | 16.06673 | 122.41063 | 33701 ft | 518 kts | 54° |
| 2026-05-04 07:38 | 16.08700 | 122.44155 | 34028 ft | 518 kts | 54° |
| 2026-05-04 07:39 | 16.10728 | 122.47252 | 34296 ft | 518 kts | 54° |
| 2026-05-04 07:39 | 16.12756 | 122.50347 | 34542 ft | 519 kts | 54° |
| 2026-05-04 07:39 | 16.14790 | 122.53455 | 34799 ft | 519 kts | 54° |
| 2026-05-04 07:39 | 16.16822 | 122.56560 | 35057 ft | 519 kts | 54° |
| 2026-05-04 07:40 | 16.18856 | 122.59671 | 35311 ft | 519 kts | 54° |
| 2026-05-04 07:40 | 16.20888 | 122.62778 | 35552 ft | 519 kts | 54° |
| 2026-05-04 07:40 | 16.22890 | 122.65842 | 35799 ft | 519 kts | 54° |
| 2026-05-04 07:40 | 16.24947 | 122.68993 | 36037 ft | 520 kts | 54° |
| 2026-05-04 07:41 | 16.26956 | 122.72069 | 36266 ft | 520 kts | 54° |
| 2026-05-04 07:41 | 16.28988 | 122.75182 | 36505 ft | 520 kts | 54° |
| 2026-05-04 07:41 | 16.31018 | 122.78294 | 36721 ft | 520 kts | 54° |
| 2026-05-04 07:41 | 16.33051 | 122.81412 | 36890 ft | 522 kts | 54° |
| 2026-05-04 07:42 | 16.37163 | 122.87722 | 36917 ft | 527 kts | 54° |
| 2026-05-04 07:42 | 16.41271 | 122.94033 | 36917 ft | 526 kts | 54° |
| 2026-05-04 07:43 | 16.45378 | 123.00347 | 36919 ft | 526 kts | 54° |
| 2026-05-04 07:43 | 16.49482 | 123.06663 | 36923 ft | 526 kts | 54° |
| 2026-05-04 07:44 | 16.53584 | 123.12980 | 36924 ft | 527 kts | 55° |
| 2026-05-04 07:44 | 16.57690 | 123.19309 | 36921 ft | 527 kts | 55° |
| 2026-05-04 07:45 | 16.61796 | 123.25644 | 36921 ft | 527 kts | 55° |
| 2026-05-04 07:45 | 16.65900 | 123.31983 | 36922 ft | 527 kts | 55° |
| 2026-05-04 07:46 | 16.69975 | 123.38280 | 36925 ft | 527 kts | 55° |
| 2026-05-04 07:46 | 16.74077 | 123.44626 | 36925 ft | 528 kts | 55° |
| 2026-05-04 07:47 | 16.78206 | 123.51020 | 36925 ft | 528 kts | 55° |
| 2026-05-04 07:49 | 16.94585 | 123.76438 | 36926 ft | 529 kts | 55° |
| 2026-05-04 07:49 | 16.98691 | 123.82825 | 36926 ft | 529 kts | 55° |
| 2026-05-04 07:50 | 17.02792 | 123.89210 | 36926 ft | 529 kts | 55° |
| 2026-05-04 07:50 | 17.06893 | 123.95601 | 36926 ft | 529 kts | 55° |
| 2026-05-04 07:51 | 17.10987 | 124.01987 | 36923 ft | 529 kts | 55° |
| 2026-05-04 07:51 | 17.15084 | 124.08384 | 36927 ft | 529 kts | 55° |
| 2026-05-04 07:52 | 17.19154 | 124.14743 | 36929 ft | 529 kts | 55° |
| 2026-05-04 07:52 | 17.23246 | 124.21145 | 36926 ft | 529 kts | 55° |
| 2026-05-04 07:54 | 17.40736 | 124.45724 | 36931 ft | 523 kts | 37° |
| 2026-05-04 07:55 | 17.46473 | 124.50429 | 36929 ft | 523 kts | 34° |
| 2026-05-04 07:55 | 17.52262 | 124.54989 | 36932 ft | 523 kts | 34° |
| 2026-05-04 07:56 | 17.58067 | 124.59594 | 36932 ft | 524 kts | 34° |
| 2026-05-04 07:56 | 17.63852 | 124.64232 | 36934 ft | 524 kts | 35° |
| 2026-05-04 07:57 | 17.69627 | 124.68880 | 36935 ft | 523 kts | 35° |
| 2026-05-04 07:57 | 17.75404 | 124.73533 | 36935 ft | 523 kts | 35° |
| 2026-05-04 07:58 | 17.81175 | 124.78185 | 36933 ft | 523 kts | 35° |
| 2026-05-04 07:58 | 17.86946 | 124.82838 | 36938 ft | 523 kts | 35° |
| 2026-05-04 07:59 | 17.92727 | 124.87504 | 36936 ft | 523 kts | 35° |
| 2026-05-04 07:59 | 17.98452 | 124.92129 | 36936 ft | 523 kts | 35° |
| 2026-05-04 08:00 | 18.04210 | 124.96784 | 36936 ft | 522 kts | 35° |
| 2026-05-04 08:02 | 18.27214 | 125.15422 | 36936 ft | 521 kts | 35° |
| 2026-05-04 08:02 | 18.32955 | 125.20082 | 36938 ft | 521 kts | 35° |
| 2026-05-04 08:03 | 18.38647 | 125.24709 | 36940 ft | 520 kts | 35° |
| 2026-05-04 08:03 | 18.44378 | 125.29369 | 36937 ft | 520 kts | 35° |
| 2026-05-04 08:04 | 18.50098 | 125.34025 | 36934 ft | 519 kts | 35° |
| 2026-05-04 08:04 | 18.55811 | 125.38680 | 36944 ft | 519 kts | 35° |
| 2026-05-04 08:05 | 18.61526 | 125.43340 | 36951 ft | 519 kts | 35° |
| 2026-05-04 08:05 | 18.67231 | 125.47996 | 36942 ft | 518 kts | 35° |
| 2026-05-04 08:06 | 18.72930 | 125.52652 | 36941 ft | 518 kts | 35° |
| 2026-05-04 08:06 | 18.78618 | 125.57302 | 36944 ft | 517 kts | 35° |
| 2026-05-04 08:08 | 19.01311 | 125.75896 | 36949 ft | 517 kts | 35° |
| 2026-05-04 08:11 | 19.26854 | 125.96905 | 36952 ft | 516 kts | 35° |
| 2026-05-04 08:11 | 19.35362 | 126.03921 | 36949 ft | 517 kts | 35° |
| 2026-05-04 08:12 | 19.41027 | 126.08598 | 36951 ft | 516 kts | 35° |
| 2026-05-04 08:12 | 19.46658 | 126.13252 | 36953 ft | 517 kts | 35° |
| 2026-05-04 08:13 | 19.51201 | 126.17009 | 36953 ft | 516 kts | 35° |
| 2026-05-04 08:13 | 19.56866 | 126.21698 | 36952 ft | 516 kts | 35° |
| 2026-05-04 08:14 | 19.62530 | 126.26391 | 36956 ft | 516 kts | 35° |
| 2026-05-04 08:16 | 19.85155 | 126.45179 | 36960 ft | 516 kts | 35° |
| 2026-05-04 08:16 | 19.90806 | 126.49883 | 36951 ft | 516 kts | 35° |
| 2026-05-04 08:17 | 19.96460 | 126.54593 | 36953 ft | 516 kts | 35° |
| 2026-05-04 08:17 | 20.02112 | 126.59306 | 36968 ft | 516 kts | 36° |
| 2026-05-04 08:19 | 20.24641 | 126.78137 | 36958 ft | 515 kts | 36° |
| 2026-05-04 08:20 | 20.30281 | 126.82863 | 36962 ft | 515 kts | 36° |
| 2026-05-04 08:20 | 20.34964 | 126.86790 | 36960 ft | 515 kts | 36° |
| 2026-05-04 08:21 | 20.40595 | 126.91516 | 36958 ft | 515 kts | 36° |
| 2026-05-04 08:21 | 20.46224 | 126.96245 | 36966 ft | 515 kts | 36° |
| 2026-05-04 08:22 | 20.51861 | 127.00985 | 36962 ft | 516 kts | 36° |
| 2026-05-04 08:24 | 20.74384 | 127.19971 | 36965 ft | 516 kts | 36° |
| 2026-05-04 08:24 | 20.80017 | 127.24731 | 36966 ft | 516 kts | 36° |
| 2026-05-04 08:25 | 20.85646 | 127.29492 | 36967 ft | 516 kts | 36° |
| 2026-05-04 08:25 | 20.91282 | 127.34264 | 36967 ft | 516 kts | 36° |
| 2026-05-04 08:27 | 21.13962 | 127.53077 | 36967 ft | 516 kts | 34° |
| 2026-05-04 08:28 | 21.19686 | 127.57738 | 36969 ft | 517 kts | 34° |
| 2026-05-04 08:28 | 21.25408 | 127.62421 | 36972 ft | 517 kts | 34° |
| 2026-05-04 08:29 | 21.31117 | 127.67103 | 36970 ft | 517 kts | 34° |
| 2026-05-04 08:31 | 21.53802 | 127.85753 | 37000 ft | 487 kts | 34° |
| 2026-05-04 08:33 | 21.70321 | 127.99372 | 36978 ft | 441 kts | 34° |
| 2026-05-04 08:33 | 21.72588 | 128.01240 | 36954 ft | 444 kts | 34° |
| 2026-05-04 08:35 | 21.90405 | 128.15975 | 36978 ft | 482 kts | 34° |
| 2026-05-04 08:35 | 21.93076 | 128.18190 | 36978 ft | 488 kts | 34° |
| 2026-05-04 08:35 | 21.98525 | 128.22710 | 36982 ft | 500 kts | 34° |
| 2026-05-04 08:37 | 22.15517 | 128.36841 | 36984 ft | 519 kts | 34° |
| 2026-05-04 08:37 | 22.18378 | 128.39226 | 36985 ft | 519 kts | 34° |
| 2026-05-04 08:38 | 22.24093 | 128.43992 | 36988 ft | 519 kts | 34° |
| 2026-05-04 08:38 | 22.29802 | 128.48756 | 36985 ft | 519 kts | 34° |
| 2026-05-04 08:40 | 22.52588 | 128.67818 | 36995 ft | 519 kts | 35° |
| 2026-05-04 08:41 | 22.58295 | 128.72606 | 36992 ft | 519 kts | 35° |
| 2026-05-04 08:41 | 22.64000 | 128.77397 | 36996 ft | 519 kts | 35° |
| 2026-05-04 08:42 | 22.69703 | 128.82192 | 36988 ft | 519 kts | 35° |
| 2026-05-04 08:42 | 22.75418 | 128.87001 | 36995 ft | 519 kts | 35° |
| 2026-05-04 08:43 | 22.81125 | 128.91810 | 36997 ft | 520 kts | 35° |
| 2026-05-04 08:43 | 22.86837 | 128.96627 | 37001 ft | 520 kts | 35° |
| 2026-05-04 08:44 | 22.92538 | 129.01441 | 36999 ft | 520 kts | 35° |
| 2026-05-04 08:46 | 23.15880 | 129.19906 | 37008 ft | 520 kts | 31° |
| 2026-05-04 08:46 | 23.21828 | 129.24396 | 37005 ft | 520 kts | 32° |
| 2026-05-04 08:47 | 23.27755 | 129.28915 | 37013 ft | 520 kts | 32° |
| 2026-05-04 08:47 | 23.33682 | 129.33448 | 37003 ft | 521 kts | 32° |
| 2026-05-04 08:48 | 23.39613 | 129.37986 | 37021 ft | 521 kts | 32° |
| 2026-05-04 08:48 | 23.45545 | 129.42527 | 37015 ft | 522 kts | 32° |
| 2026-05-04 08:49 | 23.51448 | 129.47051 | 37010 ft | 522 kts | 32° |
| 2026-05-04 08:50 | 23.72260 | 129.63042 | 37023 ft | 523 kts | 32° |
| 2026-05-04 08:51 | 23.78210 | 129.67625 | 37023 ft | 524 kts | 32° |
| 2026-05-04 08:51 | 23.84162 | 129.72216 | 37024 ft | 524 kts | 32° |
| 2026-05-04 08:52 | 23.90120 | 129.76816 | 37023 ft | 525 kts | 32° |
| 2026-05-04 08:52 | 23.96080 | 129.81423 | 37029 ft | 525 kts | 32° |
| 2026-05-04 08:54 | 24.19942 | 129.99923 | 37036 ft | 527 kts | 32° |
| 2026-05-04 08:55 | 24.25917 | 130.04568 | 37035 ft | 527 kts | 32° |
| 2026-05-04 08:55 | 24.31902 | 130.09228 | 37033 ft | 527 kts | 32° |
| 2026-05-04 09:01 | 24.95466 | 130.57340 | 37050 ft | 530 kts | 31° |
| 2026-05-04 09:01 | 25.01541 | 130.61960 | 37048 ft | 530 kts | 31° |
| 2026-05-04 09:02 | 25.07619 | 130.66589 | 37054 ft | 531 kts | 31° |
| 2026-05-04 09:02 | 25.13702 | 130.71226 | 37056 ft | 531 kts | 31° |
| 2026-05-04 09:03 | 25.19783 | 130.75868 | 37055 ft | 531 kts | 31° |
| 2026-05-04 09:03 | 25.25827 | 130.80487 | 37057 ft | 532 kts | 30° |
| 2026-05-04 09:04 | 25.31907 | 130.85139 | 37057 ft | 532 kts | 30° |
| 2026-05-04 09:04 | 25.37989 | 130.89800 | 37058 ft | 532 kts | 30° |
| 2026-05-04 09:05 | 25.44072 | 130.94466 | 37059 ft | 532 kts | 30° |
| 2026-05-04 09:05 | 25.50166 | 130.99147 | 37064 ft | 532 kts | 30° |
| 2026-05-04 09:06 | 25.56257 | 131.03832 | 37061 ft | 533 kts | 30° |
| 2026-05-04 09:08 | 25.79512 | 131.21772 | 37050 ft | 534 kts | 30° |
| 2026-05-04 09:08 | 25.85598 | 131.26481 | 37051 ft | 534 kts | 30° |
| 2026-05-04 09:09 | 25.91514 | 131.31516 | 37049 ft | 537 kts | 36° |
| 2026-05-04 09:09 | 25.97235 | 131.36871 | 37048 ft | 538 kts | 36° |
| 2026-05-04 09:10 | 26.02977 | 131.42206 | 37051 ft | 538 kts | 36° |
| 2026-05-04 09:10 | 26.08727 | 131.47456 | 37055 ft | 538 kts | 35° |
| 2026-05-04 09:11 | 26.14524 | 131.52718 | 37065 ft | 538 kts | 35° |
| 2026-05-04 09:11 | 26.20333 | 131.57995 | 37071 ft | 539 kts | 35° |
| 2026-05-04 09:12 | 26.26135 | 131.63278 | 37076 ft | 539 kts | 35° |
| 2026-05-04 09:14 | 26.49365 | 131.84509 | 37080 ft | 540 kts | 35° |
| 2026-05-04 09:14 | 26.55183 | 131.89846 | 37077 ft | 540 kts | 35° |
| 2026-05-04 09:15 | 26.60993 | 131.95181 | 37075 ft | 541 kts | 35° |
| 2026-05-04 09:15 | 26.66756 | 132.00481 | 37080 ft | 541 kts | 35° |
| 2026-05-04 09:17 | 26.92946 | 132.24654 | 37083 ft | 543 kts | 35° |
| 2026-05-04 09:18 | 26.98772 | 132.30052 | 37084 ft | 543 kts | 35° |
| 2026-05-04 09:18 | 27.04564 | 132.35426 | 37088 ft | 544 kts | 35° |
| 2026-05-04 09:19 | 27.10392 | 132.40841 | 37080 ft | 544 kts | 35° |
| 2026-05-04 09:19 | 27.16223 | 132.46266 | 37085 ft | 545 kts | 35° |
| 2026-05-04 09:20 | 27.22061 | 132.51705 | 37090 ft | 545 kts | 35° |
| 2026-05-04 09:20 | 27.27908 | 132.57160 | 37080 ft | 546 kts | 36° |
| 2026-05-04 09:21 | 27.33744 | 132.62613 | 37089 ft | 546 kts | 36° |
| 2026-05-04 09:21 | 27.39589 | 132.68082 | 37093 ft | 546 kts | 36° |
| 2026-05-04 09:22 | 27.45427 | 132.73552 | 37090 ft | 546 kts | 36° |
| 2026-05-04 09:22 | 27.51270 | 132.79035 | 37091 ft | 547 kts | 36° |
| 2026-05-04 09:23 | 27.57117 | 132.84529 | 37089 ft | 547 kts | 36° |
| 2026-05-04 09:23 | 27.62969 | 132.90036 | 37085 ft | 548 kts | 36° |
| 2026-05-04 09:25 | 27.86367 | 133.12134 | 37085 ft | 549 kts | 36° |
| 2026-05-04 09:26 | 27.92195 | 133.17664 | 37085 ft | 549 kts | 36° |
| 2026-05-04 09:26 | 27.98030 | 133.23243 | 37086 ft | 550 kts | 36° |
| 2026-05-04 09:27 | 28.03881 | 133.28849 | 37084 ft | 551 kts | 36° |
| 2026-05-04 09:27 | 28.09731 | 133.34458 | 37080 ft | 551 kts | 36° |
| 2026-05-04 09:28 | 28.15590 | 133.40079 | 37082 ft | 552 kts | 36° |
| 2026-05-04 09:28 | 28.21443 | 133.45703 | 37081 ft | 552 kts | 36° |
| 2026-05-04 09:29 | 28.27307 | 133.51346 | 37080 ft | 552 kts | 36° |
| 2026-05-04 09:29 | 28.33161 | 133.56988 | 37085 ft | 553 kts | 36° |
| 2026-05-04 09:30 | 28.38990 | 133.62613 | 37074 ft | 553 kts | 36° |
| 2026-05-04 09:30 | 28.44857 | 133.68284 | 37087 ft | 554 kts | 36° |
| 2026-05-04 09:31 | 28.50772 | 133.74011 | 37080 ft | 555 kts | 36° |
| 2026-05-04 09:31 | 28.56598 | 133.79661 | 37074 ft | 555 kts | 36° |
| 2026-05-04 09:32 | 28.62469 | 133.85371 | 37072 ft | 555 kts | 36° |
| 2026-05-04 09:34 | 28.85988 | 134.08296 | 37072 ft | 557 kts | 36° |
| 2026-05-04 09:34 | 28.91872 | 134.14057 | 37071 ft | 557 kts | 36° |
| 2026-05-04 09:35 | 28.97752 | 134.19822 | 37069 ft | 557 kts | 36° |
| 2026-05-04 09:35 | 29.03587 | 134.25551 | 37069 ft | 558 kts | 36° |
| 2026-05-04 09:37 | 29.27149 | 134.48778 | 37058 ft | 559 kts | 36° |
| 2026-05-04 09:38 | 29.33053 | 134.54621 | 37066 ft | 560 kts | 36° |
| 2026-05-04 09:38 | 29.38938 | 134.60454 | 37054 ft | 560 kts | 36° |
| 2026-05-04 09:39 | 29.44830 | 134.66305 | 37055 ft | 560 kts | 37° |
| 2026-05-04 09:39 | 29.50722 | 134.72164 | 37058 ft | 560 kts | 37° |
| 2026-05-04 09:40 | 29.56607 | 134.78026 | 37057 ft | 561 kts | 37° |
| 2026-05-04 09:40 | 29.62504 | 134.83908 | 37059 ft | 562 kts | 37° |
| 2026-05-04 09:42 | 29.86099 | 135.07542 | 37049 ft | 564 kts | 37° |
| 2026-05-04 09:43 | 29.92006 | 135.13484 | 37049 ft | 564 kts | 37° |
| 2026-05-04 09:43 | 29.97915 | 135.19435 | 37050 ft | 564 kts | 37° |
| 2026-05-04 09:44 | 30.03825 | 135.25399 | 37048 ft | 565 kts | 37° |
| 2026-05-04 09:46 | 30.27651 | 135.49149 | 37051 ft | 566 kts | 36° |
| 2026-05-04 09:46 | 30.33648 | 135.55070 | 37047 ft | 567 kts | 36° |
| 2026-05-04 09:47 | 30.39638 | 135.61012 | 37049 ft | 567 kts | 36° |
| 2026-05-04 09:49 | 30.63607 | 135.84894 | 37045 ft | 569 kts | 36° |
| 2026-05-04 09:51 | 30.84584 | 136.05923 | 37032 ft | 571 kts | 36° |
| 2026-05-04 09:51 | 30.90593 | 136.11971 | 37030 ft | 571 kts | 36° |
| 2026-05-04 09:52 | 30.96605 | 136.18032 | 37025 ft | 572 kts | 36° |
| 2026-05-04 09:52 | 31.02620 | 136.24106 | 37023 ft | 572 kts | 36° |
| 2026-05-04 09:53 | 31.08632 | 136.30189 | 37018 ft | 572 kts | 36° |
| 2026-05-04 09:53 | 31.14641 | 136.36279 | 37016 ft | 572 kts | 37° |
| 2026-05-04 09:54 | 31.20653 | 136.42382 | 37013 ft | 573 kts | 37° |
| 2026-05-04 09:54 | 31.26663 | 136.48494 | 37015 ft | 573 kts | 37° |
| 2026-05-04 09:55 | 31.32684 | 136.54628 | 37008 ft | 574 kts | 37° |
| 2026-05-04 09:55 | 31.37681 | 136.59727 | 37005 ft | 574 kts | 37° |
| 2026-05-04 09:56 | 31.44671 | 136.66873 | 37004 ft | 574 kts | 37° |
| 2026-05-04 09:56 | 31.50681 | 136.73043 | 37002 ft | 575 kts | 37° |
| 2026-05-04 09:57 | 31.56692 | 136.79228 | 37001 ft | 575 kts | 37° |
| 2026-05-04 09:57 | 31.61726 | 136.84414 | 36997 ft | 575 kts | 37° |
| 2026-05-04 09:58 | 31.63729 | 136.86480 | 36998 ft | 575 kts | 37° |
| 2026-05-04 09:58 | 31.66256 | 136.89088 | 36995 ft | 576 kts | 37° |
| 2026-05-04 10:00 | 31.90339 | 137.14041 | 36983 ft | 577 kts | 37° |
| 2026-05-04 10:04 | 32.32457 | 137.58121 | 36964 ft | 580 kts | 37° |
| 2026-05-04 10:04 | 32.38455 | 137.64445 | 37024 ft | 571 kts | 38° |
| 2026-05-04 10:05 | 32.44407 | 137.70733 | 36956 ft | 578 kts | 38° |
| 2026-05-04 10:05 | 32.50428 | 137.77099 | 36953 ft | 581 kts | 38° |
| 2026-05-04 10:06 | 32.56425 | 137.83458 | 36951 ft | 581 kts | 38° |
| 2026-05-04 10:06 | 32.62447 | 137.89857 | 36948 ft | 581 kts | 38° |
| 2026-05-04 10:08 | 32.83462 | 138.12275 | 36925 ft | 581 kts | 38° |
| 2026-05-04 10:08 | 32.89472 | 138.18732 | 36921 ft | 581 kts | 39° |
| 2026-05-04 10:09 | 32.95321 | 138.25385 | 36921 ft | 582 kts | 41° |
| 2026-05-04 10:09 | 33.01112 | 138.32135 | 36917 ft | 582 kts | 41° |
| 2026-05-04 10:10 | 33.06915 | 138.38864 | 36905 ft | 582 kts | 40° |
| 2026-05-04 10:10 | 33.12733 | 138.45574 | 36900 ft | 582 kts | 40° |
| 2026-05-04 10:11 | 33.18556 | 138.52288 | 36895 ft | 582 kts | 40° |
| 2026-05-04 10:11 | 33.24366 | 138.59002 | 36893 ft | 581 kts | 40° |
| 2026-05-04 10:12 | 33.30179 | 138.65736 | 36887 ft | 581 kts | 40° |
| 2026-05-04 10:12 | 33.35934 | 138.72418 | 36887 ft | 580 kts | 40° |
| 2026-05-04 10:13 | 33.41718 | 138.79147 | 36881 ft | 581 kts | 41° |
| 2026-05-04 10:13 | 33.47512 | 138.85898 | 36880 ft | 580 kts | 41° |
| 2026-05-04 10:14 | 33.53295 | 138.92651 | 36872 ft | 580 kts | 41° |
| 2026-05-04 10:16 | 33.76282 | 139.19620 | 36856 ft | 577 kts | 41° |
| 2026-05-04 10:16 | 33.81974 | 139.26327 | 36858 ft | 576 kts | 41° |
| 2026-05-04 10:17 | 33.87694 | 139.33082 | 36850 ft | 576 kts | 41° |
| 2026-05-04 10:19 | 34.10105 | 139.60639 | 36830 ft | 577 kts | 48° |
| 2026-05-04 10:19 | 34.15165 | 139.68183 | 36819 ft | 577 kts | 49° |
| 2026-05-04 10:20 | 34.20153 | 139.75731 | 36389 ft | 571 kts | 49° |
| 2026-05-04 10:20 | 34.22628 | 139.79484 | 35775 ft | 570 kts | 49° |
| 2026-05-04 10:20 | 34.25104 | 139.83236 | 35106 ft | 572 kts | 49° |
| 2026-05-04 10:21 | 34.27586 | 139.86997 | 34429 ft | 573 kts | 50° |
| 2026-05-04 10:21 | 34.30076 | 139.90771 | 33732 ft | 575 kts | 50° |
| 2026-05-04 10:21 | 34.32573 | 139.94559 | 33069 ft | 574 kts | 50° |
| 2026-05-04 10:21 | 34.35022 | 139.98280 | 32542 ft | 571 kts | 50° |
| 2026-05-04 10:22 | 34.39939 | 140.05764 | 31545 ft | 564 kts | 50° |
| 2026-05-04 10:22 | 34.42368 | 140.09466 | 31094 ft | 560 kts | 50° |
| 2026-05-04 10:22 | 34.44780 | 140.13150 | 30656 ft | 556 kts | 50° |
| 2026-05-04 10:23 | 34.46942 | 140.16950 | 30195 ft | 553 kts | 57° |
| 2026-05-04 10:23 | 34.48996 | 140.20870 | 29738 ft | 549 kts | 58° |
| 2026-05-04 10:25 | 34.62875 | 140.47754 | 26262 ft | 526 kts | 57° |
| 2026-05-04 10:25 | 34.64803 | 140.51511 | 25779 ft | 523 kts | 57° |
| 2026-05-04 10:25 | 34.66721 | 140.55252 | 25335 ft | 519 kts | 57° |
| 2026-05-04 10:25 | 34.68598 | 140.58920 | 24865 ft | 516 kts | 57° |
| 2026-05-04 10:26 | 34.70487 | 140.62612 | 24423 ft | 514 kts | 57° |
| 2026-05-04 10:26 | 34.72368 | 140.66299 | 23950 ft | 511 kts | 57° |
| 2026-05-04 10:26 | 34.74077 | 140.70073 | 23516 ft | 508 kts | 63° |
| 2026-05-04 10:26 | 34.75654 | 140.73913 | 22998 ft | 506 kts | 64° |
| 2026-05-04 10:27 | 34.77206 | 140.77734 | 22489 ft | 503 kts | 64° |
| 2026-05-04 10:27 | 34.78751 | 140.81536 | 21989 ft | 499 kts | 64° |
| 2026-05-04 10:27 | 34.80285 | 140.85307 | 21535 ft | 495 kts | 64° |
| 2026-05-04 10:27 | 34.81983 | 140.88925 | 21020 ft | 491 kts | 51° |
| 2026-05-04 10:28 | 34.84335 | 140.91856 | 20547 ft | 479 kts | 32° |
| 2026-05-04 10:28 | 34.87155 | 140.93898 | 20090 ft | 466 kts | 19° |
| 2026-05-04 10:28 | 34.90057 | 140.95605 | 19641 ft | 462 kts | 19° |
| 2026-05-04 10:28 | 34.92930 | 140.97357 | 19181 ft | 460 kts | 21° |
| 2026-05-04 10:29 | 34.95756 | 140.99164 | 18736 ft | 458 kts | 22° |
| 2026-05-04 10:29 | 34.98544 | 141.01001 | 18308 ft | 455 kts | 22° |
| 2026-05-04 10:29 | 35.01256 | 141.02817 | 17868 ft | 452 kts | 22° |
| 2026-05-04 10:29 | 35.04001 | 141.04672 | 17341 ft | 449 kts | 23° |
| 2026-05-04 10:30 | 35.06729 | 141.06526 | 16845 ft | 446 kts | 23° |
| 2026-05-04 10:30 | 35.09427 | 141.08367 | 16360 ft | 443 kts | 23° |
| 2026-05-04 10:30 | 35.12108 | 141.10199 | 15900 ft | 440 kts | 23° |
| 2026-05-04 10:30 | 35.14766 | 141.12020 | 15430 ft | 437 kts | 23° |
| 2026-05-04 10:31 | 35.17403 | 141.13827 | 14956 ft | 434 kts | 23° |
| 2026-05-04 10:31 | 35.20029 | 141.15610 | 14525 ft | 428 kts | 21° |
| 2026-05-04 10:32 | 35.36434 | 141.20892 | 11724 ft | 395 kts | 6° |
| 2026-05-04 10:33 | 35.39092 | 141.21685 | 11271 ft | 389 kts | 5° |
| 2026-05-04 10:33 | 35.41718 | 141.21962 | 10804 ft | 368 kts | 346° |
| 2026-05-04 10:33 | 35.44117 | 141.21239 | 10348 ft | 345 kts | 327° |
| 2026-05-04 10:33 | 35.46123 | 141.19874 | 10066 ft | 320 kts | 311° |
| 2026-05-04 10:34 | 35.47510 | 141.17939 | 10010 ft | 289 kts | 295° |
| 2026-05-04 10:34 | 35.48549 | 141.15921 | 10003 ft | 270 kts | 293° |
| 2026-05-04 10:34 | 35.49426 | 141.13968 | 10009 ft | 254 kts | 285° |
| 2026-05-04 10:34 | 35.49932 | 141.11938 | 9979 ft | 245 kts | 274° |
| 2026-05-04 10:35 | 35.50165 | 141.09896 | 9643 ft | 241 kts | 271° |
| 2026-05-04 10:35 | 35.50326 | 141.07845 | 9167 ft | 243 kts | 270° |
| 2026-05-04 10:35 | 35.50475 | 141.05774 | 8689 ft | 244 kts | 270° |
| 2026-05-04 10:35 | 35.50621 | 141.03693 | 8246 ft | 245 kts | 270° |
| 2026-05-04 10:36 | 35.50764 | 141.01608 | 7820 ft | 245 kts | 270° |
| 2026-05-04 10:36 | 35.50906 | 140.99522 | 7420 ft | 245 kts | 270° |
| 2026-05-04 10:36 | 35.51046 | 140.97434 | 6969 ft | 246 kts | 270° |
| 2026-05-04 10:36 | 35.51186 | 140.95335 | 6556 ft | 247 kts | 270° |
| 2026-05-04 10:37 | 35.51328 | 140.93226 | 6132 ft | 248 kts | 270° |
| 2026-05-04 10:37 | 35.51467 | 140.91114 | 5728 ft | 247 kts | 270° |
| 2026-05-04 10:37 | 35.51433 | 140.89049 | 5448 ft | 238 kts | 259° |
| 2026-05-04 10:37 | 35.51165 | 140.87087 | 5282 ft | 227 kts | 256° |
| 2026-05-04 10:39 | 35.49306 | 140.76538 | 5044 ft | 208 kts | 254° |
| 2026-05-04 10:39 | 35.48990 | 140.74806 | 5042 ft | 208 kts | 254° |
| 2026-05-04 10:39 | 35.48671 | 140.73070 | 5041 ft | 208 kts | 254° |
| 2026-05-04 10:40 | 35.48354 | 140.71336 | 5040 ft | 208 kts | 255° |
| 2026-05-04 10:40 | 35.48190 | 140.69567 | 5037 ft | 212 kts | 267° |
| 2026-05-04 10:40 | 35.48526 | 140.67781 | 5040 ft | 220 kts | 287° |
| 2026-05-04 10:40 | 35.49246 | 140.66101 | 5032 ft | 223 kts | 292° |
| 2026-05-04 10:41 | 35.50035 | 140.64456 | 5031 ft | 224 kts | 293° |
| 2026-05-04 10:41 | 35.50800 | 140.62861 | 5026 ft | 216 kts | 292° |
| 2026-05-04 10:41 | 35.51549 | 140.61286 | 5028 ft | 212 kts | 292° |
| 2026-05-04 10:41 | 35.52285 | 140.59713 | 5023 ft | 213 kts | 292° |
| 2026-05-04 10:42 | 35.53039 | 140.58143 | 5018 ft | 215 kts | 296° |
| 2026-05-04 10:42 | 35.54107 | 140.56808 | 5017 ft | 226 kts | 317° |
| 2026-05-04 10:42 | 35.55456 | 140.55782 | 5015 ft | 230 kts | 322° |
| 2026-05-04 10:42 | 35.56670 | 140.54937 | 5011 ft | 230 kts | 322° |
| 2026-05-04 10:43 | 35.58064 | 140.53966 | 5007 ft | 230 kts | 322° |
| 2026-05-04 10:44 | 35.67057 | 140.47559 | 2642 ft | 215 kts | 319° |
| 2026-05-04 10:45 | 35.68307 | 140.46650 | 2346 ft | 202 kts | 318° |
| 2026-05-04 10:45 | 35.69483 | 140.45795 | 2083 ft | 191 kts | 317° |
| 2026-05-04 10:45 | 35.70602 | 140.44984 | 1830 ft | 183 kts | 319° |
| 2026-05-04 10:45 | 35.71698 | 140.44193 | 1589 ft | 182 kts | 319° |
| 2026-05-04 10:46 | 35.73087 | 140.43189 | 1285 ft | 166 kts | 319° |
| 2026-05-04 10:46 | 35.73744 | 140.42713 | 1146 ft | 159 kts | 319° |
| 2026-05-04 10:46 | 35.74967 | 140.41830 | 892 ft | 152 kts | 319° |
| 2026-05-04 10:46 | 35.75579 | 140.41365 | 812 ft | 152 kts | 318° |
| 2026-05-04 10:47 | 35.76479 | 140.40689 | 649 ft | 152 kts | 321° |
| 2026-05-04 10:47 | 35.77396 | 140.40053 | 466 ft | 148 kts | 322° |
| 2026-05-04 10:47 | 35.78275 | 140.39440 | 292 ft | 146 kts | 322° |
| 2026-05-04 10:47 | 35.79153 | 140.38803 | 153 ft | 143 kts | 327° |
| 2026-05-04 10:49 | 35.80300 | 140.37725 | 149 ft | 9 kts | 175° |
| 2026-05-04 10:49 | 35.80235 | 140.37758 | 149 ft | 11 kts | 149° |
| 2026-05-04 10:50 | 35.80162 | 140.37811 | 150 ft | 13 kts | 149° |
| 2026-05-04 10:51 | 35.79352 | 140.38394 | 150 ft | 24 kts | 149° |
| 2026-05-04 10:52 | 35.79202 | 140.38502 | 150 ft | 26 kts | 150° |
| 2026-05-04 10:52 | 35.79070 | 140.38609 | 150 ft | 19 kts | 134° |
| 2026-05-04 10:52 | 35.78987 | 140.38748 | 150 ft | 21 kts | 136° |
| 2026-05-04 10:54 | 35.78063 | 140.39122 | 149 ft | 9 kts | 176° |
| 2026-05-04 10:54 | 35.78002 | 140.39153 | 149 ft | 11 kts | 154° |
| 2026-05-04 10:56 | 35.77478 | 140.39511 | 150 ft | 4 kts | 153° |
| 2026-05-04 10:56 | 35.77457 | 140.39509 | 150 ft | 3 kts | 192° |
| 2026-05-04 10:56 | 35.77432 | 140.39478 | 150 ft | 6 kts | 233° |
| 2026-05-04 10:57 | 35.77415 | 140.39446 | 150 ft | 1 kts | 238° |
| 2026-05-04 10:57 | 35.77412 | 140.39440 | 150 ft | 0 kts | 238° |